SBRFSBAR

Guest
Details From SBRF - Recife Intl
To SBAR - SANTA MARIA
Flight Number -
Tags generated
Created
Modified
Stats Distance 214 nm / 395 km
Max Altitude 24,500 ft / 7,468 m
Waypoints 4
Social Downloads 3
Likes 0
Share VATSIM

Download

Looking for another format? Having issues loading an existing format? Contact us
Advertisement - Login to hide

Notes

Basic altitude profile: - Ascent Rate: 2000ft/min - Ascent Speed: 250kts - Cruise Altitude: 220ft - Cruise Speed: 350kts - Descent Rate: 2000ft/min - Descent Speed: 250kts

Route

SBRF POTRO UW58 ORAGO SBAR

ID Type Via Altitude Latitude Longitude Leg Dist Tot Dist Heading (true) Name
O SBRF APT - 0 ft / 0 m -8.12790˚ -34.92298˚ - 0 nm - Recife Intl
POTRO FIX - 200 ft / 61 m -8.80833˚ -35.42917˚ 50 nm 50 nm 216° / 216° -
ORAGO FIX UW58 (AWY-HI) 24,500 ft / 7,468 m -10.31467˚ -36.56317˚ 112 nm 163 nm 216° / 217° -
O SBAR APT - 0 ft / 0 m -10.98400˚ -37.07033˚ 50 nm 213 nm 217° / 217° SANTA MARIA

Altitude Profile

Advertisement - Login to hide

Weather


0- 5 10 15 20 25 30 35+ Temperature / ° C

Clouds and Precipitation
Forecast for 2018-05-20 18:00 UTC. Updated 5 hours ago

Ground ~20,000 ft ~40,000 ft Winds

SBRF

Details ICAO SBRF (REC)
Name Recife Intl
Region Brazil
Timezone America/Recife (UTC-3.0)
Stats Elevation 33 ft / 10 m (AMSL)
Location -8.127896° -34.922981°
Runways 2
Magnetic Variation 22.075° W

METAR

SBRF 202200Z 14007KT 9999 SCT023 27/23 Q1012

Decode

TAF

TAF SBRF 201600Z 2018/2118 14008KT 9999 SCT023 TN24/2107Z TX29/2115Z BECMG 2100/2101 21004KT BECMG 2111/2112 14008KT RMK PEA

Decode

Departure Runways

ID Width Length Bearing (true) Bearing (mag) Surface Threshold Offset Overrun Length
01 98 ft / 30 m 4,979 ft / 1,518 m 304.20° 326.27° Asphalt 300 ft / 91 m 0 ft / 0 m
18 148 ft / 45 m 9,915 ft / 3,022 m 161.91° 183.98° Asphalt 1,225 ft / 373 m 0 ft / 0 m
19 98 ft / 30 m 4,979 ft / 1,518 m 124.20° 146.27° Asphalt 300 ft / 91 m 0 ft / 0 m
36 148 ft / 45 m 9,915 ft / 3,022 m 341.91° 3.98° Asphalt 0 ft / 0 m 350 ft / 107 m

SBAR

Details ICAO SBAR (AJU)
Name SANTA MARIA
Region Brazil
Timezone America/Maceio (UTC-3.0)
Stats Elevation 23 ft / 7 m (AMSL)
Location -10.984000° -37.070333°
Runways 1
Magnetic Variation 23.050° W

METAR

SBAR 202200Z 08007KT CAVOK 27/23 Q1011

Decode

TAF

TAF SBAR 201600Z 2018/2106 12006KT 9999 SCT017 TX29/2018Z TN25/2105Z RMK PEA

Decode

Destination Runways

ID Width Length Bearing (true) Bearing (mag) Surface Threshold Offset Overrun Length
11 148 ft / 45 m 7,228 ft / 2,203 m 91.93° 114.98° Asphalt 0 ft / 0 m 200 ft / 61 m
29 148 ft / 45 m 7,228 ft / 2,203 m 271.92° 294.97° Asphalt 0 ft / 0 m 200 ft / 61 m

Popular Alternatives